sensor_id;sensor_type;location;lat;lon;timestamp;pressure;altitude;pressure_sealevel;temperature;humidity
60240;BME280;46102;39.012;-7.064;2023-04-27T00:00:55;98237.00;;;23.65;27.77
60240;BME280;46102;39.012;-7.064;2023-04-27T00:02:56;98229.47;;;23.58;27.78
60240;BME280;46102;39.012;-7.064;2023-04-27T00:04:56;98232.25;;;23.58;27.97
60240;BME280;46102;39.012;-7.064;2023-04-27T00:06:57;98231.88;;;23.56;27.98
60240;BME280;46102;39.012;-7.064;2023-04-27T00:08:58;98229.06;;;23.56;28.13
60240;BME280;46102;39.012;-7.064;2023-04-27T00:10:59;98222.31;;;23.54;28.15
60240;BME280;46102;39.012;-7.064;2023-04-27T00:13:02;98227.13;;;23.53;28.29
60240;BME280;46102;39.012;-7.064;2023-04-27T00:15:04;98222.31;;;23.50;28.36
60240;BME280;46102;39.012;-7.064;2023-04-27T00:17:04;98231.88;;;23.53;28.35
60240;BME280;46102;39.012;-7.064;2023-04-27T00:19:05;98231.94;;;23.49;28.67
60240;BME280;46102;39.012;-7.064;2023-04-27T00:21:09;98231.56;;;23.43;28.66
60240;BME280;46102;39.012;-7.064;2023-04-27T00:23:10;98233.97;;;23.41;28.68
60240;BME280;46102;39.012;-7.064;2023-04-27T00:25:10;98228.81;;;23.40;28.99
60240;BME280;46102;39.012;-7.064;2023-04-27T00:27:11;98227.59;;;23.41;29.18
60240;BME280;46102;39.012;-7.064;2023-04-27T00:29:12;98224.41;;;23.39;29.35
60240;BME280;46102;39.012;-7.064;2023-04-27T00:31:13;98233.22;;;23.37;29.55
60240;BME280;46102;39.012;-7.064;2023-04-27T00:33:15;98228.03;;;23.36;29.42
60240;BME280;46102;39.012;-7.064;2023-04-27T00:35:16;98234.41;;;23.36;29.55
60240;BME280;46102;39.012;-7.064;2023-04-27T00:37:17;98235.22;;;23.37;29.71
60240;BME280;46102;39.012;-7.064;2023-04-27T00:39:19;98227.63;;;23.37;29.82
60240;BME280;46102;39.012;-7.064;2023-04-27T00:41:20;98229.22;;;23.35;29.91
60240;BME280;46102;39.012;-7.064;2023-04-27T00:43:22;98226.41;;;23.42;29.99
60240;BME280;46102;39.012;-7.064;2023-04-27T00:45:23;98220.41;;;23.40;29.98
60240;BME280;46102;39.012;-7.064;2023-04-27T00:47:24;98216.44;;;23.34;30.18
60240;BME280;46102;39.012;-7.064;2023-04-27T00:49:25;98215.69;;;23.30;30.34
60240;BME280;46102;39.012;-7.064;2023-04-27T00:51:26;98213.72;;;23.26;30.37
60240;BME280;46102;39.012;-7.064;2023-04-27T00:53:30;98216.91;;;23.25;30.31
60240;BME280;46102;39.012;-7.064;2023-04-27T00:55:31;98214.09;;;23.25;30.44
60240;BME280;46102;39.012;-7.064;2023-04-27T00:57:32;98215.34;;;23.24;30.56
60240;BME280;46102;39.012;-7.064;2023-04-27T00:59:33;98220.53;;;23.18;31.26
60240;BME280;46102;39.012;-7.064;2023-04-27T01:01:34;98221.03;;;23.02;31.54
60240;BME280;46102;39.012;-7.064;2023-04-27T01:03:35;98219.50;;;22.87;32.11
60240;BME280;46102;39.012;-7.064;2023-04-27T01:05:36;98219.19;;;22.74;32.29
60240;BME280;46102;39.012;-7.064;2023-04-27T01:07:38;98219.28;;;22.42;32.81
60240;BME280;46102;39.012;-7.064;2023-04-27T01:09:39;98227.75;;;22.28;33.00
60240;BME280;46102;39.012;-7.064;2023-04-27T01:11:40;98217.34;;;22.21;33.04
60240;BME280;46102;39.012;-7.064;2023-04-27T01:13:41;98229.31;;;22.11;33.13
60240;BME280;46102;39.012;-7.064;2023-04-27T01:15:42;98220.59;;;21.98;32.99
60240;BME280;46102;39.012;-7.064;2023-04-27T01:17:43;98214.22;;;21.87;33.32
60240;BME280;46102;39.012;-7.064;2023-04-27T01:19:44;98210.25;;;21.80;33.03
60240;BME280;46102;39.012;-7.064;2023-04-27T01:21:45;98209.84;;;21.78;33.40
60240;BME280;46102;39.012;-7.064;2023-04-27T01:23:46;98205.06;;;21.79;33.04
60240;BME280;46102;39.012;-7.064;2023-04-27T01:25:46;98203.84;;;21.76;33.38
60240;BME280;46102;39.012;-7.064;2023-04-27T01:27:47;98198.28;;;21.76;33.00
60240;BME280;46102;39.012;-7.064;2023-04-27T01:29:48;98192.28;;;21.74;32.97
60240;BME280;46102;39.012;-7.064;2023-04-27T01:31:49;98195.47;;;21.73;32.86
60240;BME280;46102;39.012;-7.064;2023-04-27T01:33:50;98194.72;;;21.69;33.01
60240;BME280;46102;39.012;-7.064;2023-04-27T01:35:51;98184.34;;;21.62;33.08
60240;BME280;46102;39.012;-7.064;2023-04-27T01:37:51;98183.53;;;21.58;33.49
60240;BME280;46102;39.012;-7.064;2023-04-27T01:39:52;98175.97;;;21.55;33.28
60240;BME280;46102;39.012;-7.064;2023-04-27T01:41:53;98179.94;;;21.50;33.29
60240;BME280;46102;39.012;-7.064;2023-04-27T01:43:53;98172.78;;;21.49;33.48
60240;BME280;46102;39.012;-7.064;2023-04-27T01:45:55;98174.78;;;21.49;33.66
60240;BME280;46102;39.012;-7.064;2023-04-27T01:47:56;98168.41;;;21.45;33.87
60240;BME280;46102;39.012;-7.064;2023-04-27T01:49:57;98165.59;;;21.41;33.97
60240;BME280;46102;39.012;-7.064;2023-04-27T01:51:57;98162.81;;;21.37;33.79
60240;BME280;46102;39.012;-7.064;2023-04-27T01:53:58;98158.41;;;21.36;34.01
60240;BME280;46102;39.012;-7.064;2023-04-27T01:55:59;98158.81;;;21.38;33.82
60240;BME280;46102;39.012;-7.064;2023-04-27T01:58:00;98156.44;;;21.44;34.17
60240;BME280;46102;39.012;-7.064;2023-04-27T02:00:02;98147.66;;;21.49;33.93
60240;BME280;46102;39.012;-7.064;2023-04-27T02:02:21;98146.09;;;21.55;33.65
60240;BME280;46102;39.012;-7.064;2023-04-27T02:04:21;98148.84;;;21.59;33.17
60240;BME280;46102;39.012;-7.064;2023-04-27T02:06:22;98144.06;;;21.63;33.01
60240;BME280;46102;39.012;-7.064;2023-04-27T02:08:23;98145.66;;;21.64;32.96
60240;BME280;46102;39.012;-7.064;2023-04-27T02:10:24;98150.84;;;21.66;32.87
60240;BME280;46102;39.012;-7.064;2023-04-27T02:12:28;98144.06;;;21.67;33.25
60240;BME280;46102;39.012;-7.064;2023-04-27T02:14:29;98144.84;;;21.67;33.13
60240;BME280;46102;39.012;-7.064;2023-04-27T02:16:30;98139.28;;;21.67;32.86
60240;BME280;46102;39.012;-7.064;2023-04-27T02:18:31;98136.09;;;21.69;32.94
60240;BME280;46102;39.012;-7.064;2023-04-27T02:20:33;98128.13;;;21.71;32.73
60240;BME280;46102;39.012;-7.064;2023-04-27T02:22:34;98124.13;;;21.72;33.00
60240;BME280;46102;39.012;-7.064;2023-04-27T02:24:35;98114.53;;;21.73;32.53
60240;BME280;46102;39.012;-7.064;2023-04-27T02:26:36;98112.94;;;21.72;32.69
60240;BME280;46102;39.012;-7.064;2023-04-27T02:28:37;98116.97;;;21.71;32.79
60240;BME280;46102;39.012;-7.064;2023-04-27T02:30:38;98118.94;;;21.67;32.91
60240;BME280;46102;39.012;-7.064;2023-04-27T02:32:39;98123.75;;;21.66;32.75
60240;BME280;46102;39.012;-7.064;2023-04-27T02:34:40;98129.31;;;21.62;32.95
60240;BME280;46102;39.012;-7.064;2023-04-27T02:36:41;98124.91;;;21.61;33.07
60240;BME280;46102;39.012;-7.064;2023-04-27T02:38:43;98129.72;;;21.57;33.10
60240;BME280;46102;39.012;-7.064;2023-04-27T02:40:44;98129.34;;;21.55;33.24
60240;BME280;46102;39.012;-7.064;2023-04-27T02:42:44;98125.34;;;21.53;33.06
60240;BME280;46102;39.012;-7.064;2023-04-27T02:44:45;98134.53;;;21.53;33.13
60240;BME280;46102;39.012;-7.064;2023-04-27T02:46:46;98126.13;;;21.50;33.19
60240;BME280;46102;39.012;-7.064;2023-04-27T02:48:47;98124.94;;;21.47;33.35
60240;BME280;46102;39.012;-7.064;2023-04-27T02:50:47;98117.38;;;21.48;32.96
60240;BME280;46102;39.012;-7.064;2023-04-27T02:52:48;98119.78;;;21.49;33.55
60240;BME280;46102;39.012;-7.064;2023-04-27T02:54:49;98118.19;;;21.48;33.59
60240;BME280;46102;39.012;-7.064;2023-04-27T02:56:50;98120.16;;;21.48;33.35
60240;BME280;46102;39.012;-7.064;2023-04-27T02:58:50;98120.56;;;21.42;33.56
60240;BME280;46102;39.012;-7.064;2023-04-27T03:00:55;98119.34;;;21.40;33.36
60240;BME280;46102;39.012;-7.064;2023-04-27T03:02:56;98117.75;;;21.39;33.69
60240;BME280;46102;39.012;-7.064;2023-04-27T03:04:57;98124.16;;;21.39;33.45
60240;BME280;46102;39.012;-7.064;2023-04-27T03:06:58;98123.31;;;21.39;33.51
60240;BME280;46102;39.012;-7.064;2023-04-27T03:08:59;98126.91;;;21.36;33.53
60240;BME280;46102;39.012;-7.064;2023-04-27T03:11:01;98123.34;;;21.32;33.87
60240;BME280;46102;39.012;-7.064;2023-04-27T03:13:02;98123.34;;;21.28;33.70
60240;BME280;46102;39.012;-7.064;2023-04-27T03:15:03;98129.72;;;21.25;33.56
60240;BME280;46102;39.012;-7.064;2023-04-27T03:17:04;98124.94;;;21.18;33.82
60240;BME280;46102;39.012;-7.064;2023-04-27T03:19:06;98128.91;;;21.14;33.90
60240;BME280;46102;39.012;-7.064;2023-04-27T03:21:10;98127.72;;;21.11;34.14
60240;BME280;46102;39.012;-7.064;2023-04-27T03:23:11;98124.94;;;21.08;34.11
60240;BME280;46102;39.012;-7.064;2023-04-27T03:25:12;98128.91;;;21.07;33.93
60240;BME280;46102;39.012;-7.064;2023-04-27T03:27:14;98125.31;;;21.03;34.21
60240;BME280;46102;39.012;-7.064;2023-04-27T03:29:16;98133.28;;;21.00;34.47
60240;BME280;46102;39.012;-7.064;2023-04-27T03:31:17;98132.50;;;21.00;34.37
60240;BME280;46102;39.012;-7.064;2023-04-27T03:33:17;98132.91;;;20.98;34.12
60240;BME280;46102;39.012;-7.064;2023-04-27T03:35:18;98124.94;;;20.97;34.14
60240;BME280;46102;39.012;-7.064;2023-04-27T03:37:19;98120.94;;;20.98;34.10
60240;BME280;46102;39.012;-7.064;2023-04-27T03:39:20;98122.94;;;20.97;34.06
60240;BME280;46102;39.012;-7.064;2023-04-27T03:41:20;98122.94;;;20.97;34.09
60240;BME280;46102;39.012;-7.064;2023-04-27T03:43:22;98121.34;;;20.96;34.25
60240;BME280;46102;39.012;-7.064;2023-04-27T03:45:23;98128.91;;;20.96;34.36
60240;BME280;46102;39.012;-7.064;2023-04-27T03:47:25;98133.69;;;20.95;33.76
60240;BME280;46102;39.012;-7.064;2023-04-27T03:49:26;98125.72;;;20.97;34.13
60240;BME280;46102;39.012;-7.064;2023-04-27T03:51:27;98134.47;;;20.96;34.18
60240;BME280;46102;39.012;-7.064;2023-04-27T03:53:29;98134.09;;;20.97;33.67
60240;BME280;46102;39.012;-7.064;2023-04-27T03:55:30;98135.69;;;20.98;33.99
60240;BME280;46102;39.012;-7.064;2023-04-27T03:57:30;98138.06;;;21.00;34.02
60240;BME280;46102;39.012;-7.064;2023-04-27T03:59:32;98136.88;;;21.01;33.82
60240;BME280;46102;39.012;-7.064;2023-04-27T04:01:33;98142.44;;;21.05;33.61
60240;BME280;46102;39.012;-7.064;2023-04-27T04:03:33;98131.31;;;21.01;33.88
60240;BME280;46102;39.012;-7.064;2023-04-27T04:05:35;98132.09;;;21.02;33.98
60240;BME280;46102;39.012;-7.064;2023-04-27T04:07:35;98134.50;;;21.07;34.25
60240;BME280;46102;39.012;-7.064;2023-04-27T04:09:36;98124.16;;;21.04;33.93
60240;BME280;46102;39.012;-7.064;2023-04-27T04:11:37;98128.13;;;21.06;33.97
60240;BME280;46102;39.012;-7.064;2023-04-27T04:13:40;98128.13;;;21.03;34.00
60240;BME280;46102;39.012;-7.064;2023-04-27T04:15:41;98122.94;;;21.05;34.44
60240;BME280;46102;39.012;-7.064;2023-04-27T04:17:42;98116.97;;;20.99;34.54
60240;BME280;46102;39.012;-7.064;2023-04-27T04:19:43;98110.19;;;20.93;34.42
60240;BME280;46102;39.012;-7.064;2023-04-27T04:21:44;98114.16;;;20.88;34.70
60240;BME280;46102;39.012;-7.064;2023-04-27T04:23:45;98110.19;;;20.86;34.65
60240;BME280;46102;39.012;-7.064;2023-04-27T04:25:45;98111.38;;;20.85;34.50
60240;BME280;46102;39.012;-7.064;2023-04-27T04:27:47;98118.56;;;20.86;34.72
60240;BME280;46102;39.012;-7.064;2023-04-27T04:29:48;98113.38;;;20.84;34.63
60240;BME280;46102;39.012;-7.064;2023-04-27T04:31:50;98111.38;;;20.81;34.43
60240;BME280;46102;39.012;-7.064;2023-04-27T04:33:51;98110.59;;;20.81;34.77
60240;BME280;46102;39.012;-7.064;2023-04-27T04:35:51;98109.78;;;20.76;34.58
60240;BME280;46102;39.012;-7.064;2023-04-27T04:37:53;98110.16;;;20.75;34.60
60240;BME280;46102;39.012;-7.064;2023-04-27T04:39:54;98122.91;;;20.72;34.95
60240;BME280;46102;39.012;-7.064;2023-04-27T04:41:58;98113.34;;;20.70;34.79
60240;BME280;46102;39.012;-7.064;2023-04-27T04:44:02;98119.34;;;20.72;34.99
60240;BME280;46102;39.012;-7.064;2023-04-27T04:46:03;98111.75;;;20.72;34.81
60240;BME280;46102;39.012;-7.064;2023-04-27T04:48:04;98108.59;;;20.74;34.98
60240;BME280;46102;39.012;-7.064;2023-04-27T04:50:05;98117.34;;;20.72;35.05
60240;BME280;46102;39.012;-7.064;2023-04-27T04:52:06;98109.75;;;20.73;35.11
60240;BME280;46102;39.012;-7.064;2023-04-27T04:54:07;98125.28;;;20.70;34.79
60240;BME280;46102;39.012;-7.064;2023-04-27T04:56:09;98114.53;;;20.69;34.96
60240;BME280;46102;39.012;-7.064;2023-04-27T04:58:11;98116.53;;;20.68;35.38
60240;BME280;46102;39.012;-7.064;2023-04-27T05:00:12;98120.50;;;20.67;35.28
60240;BME280;46102;39.012;-7.064;2023-04-27T05:02:14;98116.53;;;20.68;35.04
60240;BME280;46102;39.012;-7.064;2023-04-27T05:04:14;98116.53;;;20.68;35.35
60240;BME280;46102;39.012;-7.064;2023-04-27T05:06:15;98117.72;;;20.67;35.47
60240;BME280;46102;39.012;-7.064;2023-04-27T05:08:16;98111.34;;;20.67;35.34
60240;BME280;46102;39.012;-7.064;2023-04-27T05:10:17;98114.53;;;20.65;35.56
60240;BME280;46102;39.012;-7.064;2023-04-27T05:12:17;98119.28;;;20.65;35.55
60240;BME280;46102;39.012;-7.064;2023-04-27T05:14:18;98126.06;;;20.64;35.46
60240;BME280;46102;39.012;-7.064;2023-04-27T05:16:19;98125.69;;;20.65;35.52
60240;BME280;46102;39.012;-7.064;2023-04-27T05:18:20;98130.06;;;20.66;35.45
60240;BME280;46102;39.012;-7.064;2023-04-27T05:20:21;98131.25;;;20.65;35.59
60240;BME280;46102;39.012;-7.064;2023-04-27T05:22:21;98127.25;;;20.66;35.43
60240;BME280;46102;39.012;-7.064;2023-04-27T05:24:22;98125.69;;;20.65;35.64
60240;BME280;46102;39.012;-7.064;2023-04-27T05:26:23;98127.25;;;20.66;35.69
60240;BME280;46102;39.012;-7.064;2023-04-27T05:28:24;98127.66;;;20.65;35.70
60240;BME280;46102;39.012;-7.064;2023-04-27T05:30:25;98132.84;;;20.63;35.74
60240;BME280;46102;39.012;-7.064;2023-04-27T05:32:27;98133.22;;;20.61;35.73
60240;BME280;46102;39.012;-7.064;2023-04-27T05:34:28;98123.25;;;20.60;35.53
60240;BME280;46102;39.012;-7.064;2023-04-27T05:36:28;98131.63;;;20.56;35.97
60240;BME280;46102;39.012;-7.064;2023-04-27T05:38:29;98136.75;;;20.54;35.63
60240;BME280;46102;39.012;-7.064;2023-04-27T05:40:30;98128.00;;;20.52;36.04
60240;BME280;46102;39.012;-7.064;2023-04-27T05:42:31;98136.75;;;20.51;35.81
60240;BME280;46102;39.012;-7.064;2023-04-27T05:44:31;98127.97;;;20.49;35.84
60240;BME280;46102;39.012;-7.064;2023-04-27T05:46:32;98127.97;;;20.49;35.91
60240;BME280;46102;39.012;-7.064;2023-04-27T05:48:33;98135.16;;;20.50;36.11
60240;BME280;46102;39.012;-7.064;2023-04-27T05:50:34;98132.75;;;20.48;36.06
60240;BME280;46102;39.012;-7.064;2023-04-27T05:52:34;98138.34;;;20.52;36.08
60240;BME280;46102;39.012;-7.064;2023-04-27T05:54:35;98139.94;;;20.53;36.03
60240;BME280;46102;39.012;-7.064;2023-04-27T05:56:36;98135.56;;;20.55;36.03
60240;BME280;46102;39.012;-7.064;2023-04-27T05:58:37;98146.34;;;20.57;35.81
60240;BME280;46102;39.012;-7.064;2023-04-27T06:00:38;98145.56;;;20.64;36.07
60240;BME280;46102;39.012;-7.064;2023-04-27T06:02:38;98143.59;;;20.68;35.48
60240;BME280;46102;39.012;-7.064;2023-04-27T06:04:39;98147.59;;;20.74;35.82
60240;BME280;46102;39.012;-7.064;2023-04-27T06:06:43;98136.06;;;20.79;35.50
60240;BME280;46102;39.012;-7.064;2023-04-27T06:08:44;98144.44;;;20.86;35.47
60240;BME280;46102;39.012;-7.064;2023-04-27T06:10:45;98146.44;;;20.93;35.30
60240;BME280;46102;39.012;-7.064;2023-04-27T06:12:45;98136.09;;;20.97;35.55
60240;BME280;46102;39.012;-7.064;2023-04-27T06:14:46;98142.47;;;21.01;35.18
60240;BME280;46102;39.012;-7.064;2023-04-27T06:16:47;98145.66;;;21.07;35.20
60240;BME280;46102;39.012;-7.064;2023-04-27T06:18:49;98150.03;;;21.11;35.30
60240;BME280;46102;39.012;-7.064;2023-04-27T06:20:50;98152.44;;;21.13;35.31
60240;BME280;46102;39.012;-7.064;2023-04-27T06:22:51;98152.44;;;21.13;35.15
60240;BME280;46102;39.012;-7.064;2023-04-27T06:24:52;98152.03;;;21.14;35.19
60240;BME280;46102;39.012;-7.064;2023-04-27T06:26:52;98156.03;;;21.17;35.27
60240;BME280;46102;39.012;-7.064;2023-04-27T06:28:53;98151.25;;;21.21;35.41
60240;BME280;46102;39.012;-7.064;2023-04-27T06:30:55;98154.03;;;21.25;35.55
60240;BME280;46102;39.012;-7.064;2023-04-27T06:32:56;98152.81;;;21.29;35.67
60240;BME280;46102;39.012;-7.064;2023-04-27T06:34:57;98152.03;;;21.39;35.69
60240;BME280;46102;39.012;-7.064;2023-04-27T06:36:57;98143.25;;;21.34;35.22
60240;BME280;46102;39.012;-7.064;2023-04-27T06:38:58;98148.44;;;21.35;35.59
60240;BME280;46102;39.012;-7.064;2023-04-27T06:40:59;98150.09;;;21.44;35.10
60240;BME280;46102;39.012;-7.064;2023-04-27T06:43:00;98149.25;;;21.43;35.33
60240;BME280;46102;39.012;-7.064;2023-04-27T06:45:01;98151.66;;;21.45;35.33
60240;BME280;46102;39.012;-7.064;2023-04-27T06:47:02;98146.88;;;21.45;35.42
60240;BME280;46102;39.012;-7.064;2023-04-27T06:49:03;98140.47;;;21.37;35.24
60240;BME280;46102;39.012;-7.064;2023-04-27T06:51:04;98150.84;;;21.48;34.93
60240;BME280;46102;39.012;-7.064;2023-04-27T06:53:05;98143.28;;;21.55;34.70
60240;BME280;46102;39.012;-7.064;2023-04-27T06:55:06;98146.06;;;21.59;34.70
60240;BME280;46102;39.012;-7.064;2023-04-27T06:57:07;98148.84;;;21.59;34.99
60240;BME280;46102;39.012;-7.064;2023-04-27T06:59:07;98146.06;;;21.62;34.55
60240;BME280;46102;39.012;-7.064;2023-04-27T07:01:08;98142.47;;;21.66;34.60
60240;BME280;46102;39.012;-7.064;2023-04-27T07:03:09;98144.44;;;21.72;34.48
60240;BME280;46102;39.012;-7.064;2023-04-27T07:05:10;98141.25;;;21.81;34.27
60240;BME280;46102;39.012;-7.064;2023-04-27T07:07:10;98140.03;;;21.89;34.18
60240;BME280;46102;39.012;-7.064;2023-04-27T07:09:11;98140.00;;;21.96;33.99
60240;BME280;46102;39.012;-7.064;2023-04-27T07:11:12;98142.81;;;22.00;33.91
60240;BME280;46102;39.012;-7.064;2023-04-27T07:13:13;98140.78;;;22.04;34.11
60240;BME280;46102;39.012;-7.064;2023-04-27T07:15:14;98142.38;;;22.05;34.15
60240;BME280;46102;39.012;-7.064;2023-04-27T07:17:15;98148.75;;;22.09;33.76
60240;BME280;46102;39.012;-7.064;2023-04-27T07:19:16;98146.34;;;22.15;33.78
60240;BME280;46102;39.012;-7.064;2023-04-27T07:21:17;98141.13;;;22.20;34.08
60240;BME280;46102;39.012;-7.064;2023-04-27T07:23:17;98144.72;;;22.28;34.00
60240;BME280;46102;39.012;-7.064;2023-04-27T07:25:18;98131.88;;;22.41;33.98
60240;BME280;46102;39.012;-7.064;2023-04-27T07:27:19;98136.47;;;22.80;33.18
60240;BME280;46102;39.012;-7.064;2023-04-27T07:29:20;98137.84;;;23.14;32.72
60240;BME280;46102;39.012;-7.064;2023-04-27T07:31:22;98130.34;;;23.52;32.40
60240;BME280;46102;39.012;-7.064;2023-04-27T07:33:22;98133.16;;;23.94;32.08
60240;BME280;46102;39.012;-7.064;2023-04-27T07:35:23;98131.09;;;24.32;31.35
60240;BME280;46102;39.012;-7.064;2023-04-27T07:37:24;98136.44;;;24.54;31.02
60240;BME280;46102;39.012;-7.064;2023-04-27T07:39:26;98133.25;;;24.55;30.40
60240;BME280;46102;39.012;-7.064;2023-04-27T07:41:29;98130.72;;;24.64;30.49
60240;BME280;46102;39.012;-7.064;2023-04-27T07:43:30;98125.53;;;24.90;29.70
60240;BME280;46102;39.012;-7.064;2023-04-27T07:45:31;98132.66;;;25.22;29.22
60240;BME280;46102;39.012;-7.064;2023-04-27T07:47:32;98125.13;;;25.42;29.43
60240;BME280;46102;39.012;-7.064;2023-04-27T07:49:33;98126.66;;;25.47;29.45
60240;BME280;46102;39.012;-7.064;2023-04-27T07:51:35;98121.03;;;25.47;29.67
60240;BME280;46102;39.012;-7.064;2023-04-27T07:53:36;98123.16;;;25.63;28.63
60240;BME280;46102;39.012;-7.064;2023-04-27T07:55:37;98126.53;;;25.98;28.38
60240;BME280;46102;39.012;-7.064;2023-04-27T07:57:37;98127.50;;;26.31;28.26
60240;BME280;46102;39.012;-7.064;2023-04-27T07:59:38;98122.28;;;26.49;27.34
60240;BME280;46102;39.012;-7.064;2023-04-27T08:01:39;98124.53;;;26.58;27.24
60240;BME280;46102;39.012;-7.064;2023-04-27T08:03:40;98127.97;;;26.66;27.28
60240;BME280;46102;39.012;-7.064;2023-04-27T08:05:41;98123.00;;;26.73;26.42
60240;BME280;46102;39.012;-7.064;2023-04-27T08:07:42;98131.16;;;26.68;26.44
60240;BME280;46102;39.012;-7.064;2023-04-27T08:09:43;98137.84;;;26.54;26.36
60240;BME280;46102;39.012;-7.064;2023-04-27T08:11:43;98143.47;;;26.34;26.79
60240;BME280;46102;39.012;-7.064;2023-04-27T08:13:44;98146.16;;;26.21;26.66
60240;BME280;46102;39.012;-7.064;2023-04-27T08:15:45;98149.47;;;26.16;26.35
60240;BME280;46102;39.012;-7.064;2023-04-27T08:17:46;98143.41;;;26.17;26.48
60240;BME280;46102;39.012;-7.064;2023-04-27T08:19:47;98141.81;;;26.36;26.66
60240;BME280;46102;39.012;-7.064;2023-04-27T08:21:48;98143.44;;;26.57;26.30
60240;BME280;46102;39.012;-7.064;2023-04-27T08:23:49;98149.03;;;26.77;26.15
60240;BME280;46102;39.012;-7.064;2023-04-27T08:25:50;98149.41;;;26.96;26.13
60240;BME280;46102;39.012;-7.064;2023-04-27T08:27:51;98157.78;;;27.16;25.52
60240;BME280;46102;39.012;-7.064;2023-04-27T08:29:54;98153.16;;;27.42;25.03
60240;BME280;46102;39.012;-7.064;2023-04-27T08:31:58;98144.41;;;27.69;24.76
60240;BME280;46102;39.012;-7.064;2023-04-27T08:33:59;98142.16;;;28.10;24.62
60240;BME280;46102;39.012;-7.064;2023-04-27T08:36:00;98143.81;;;28.36;23.58
60240;BME280;46102;39.012;-7.064;2023-04-27T08:38:01;98141.41;;;28.64;23.79
60240;BME280;46102;39.012;-7.064;2023-04-27T08:40:04;98139.06;;;28.62;23.78
60240;BME280;46102;39.012;-7.064;2023-04-27T08:42:13;98134.09;;;28.67;23.09
60240;BME280;46102;39.012;-7.064;2023-04-27T08:44:14;98130.81;;;28.68;22.88
60240;BME280;46102;39.012;-7.064;2023-04-27T08:46:22;98134.97;;;28.63;23.15
60240;BME280;46102;39.012;-7.064;2023-04-27T08:48:23;98137.03;;;28.76;23.47
60240;BME280;46102;39.012;-7.064;2023-04-27T08:50:24;98129.47;;;28.85;23.26
60240;BME280;46102;39.012;-7.064;2023-04-27T08:52:25;98131.28;;;29.05;23.09
60240;BME280;46102;39.012;-7.064;2023-04-27T08:54:26;98120.81;;;29.18;23.09
60240;BME280;46102;39.012;-7.064;2023-04-27T08:56:28;98108.34;;;29.41;23.26
60240;BME280;46102;39.012;-7.064;2023-04-27T08:58:36;98118.81;;;29.54;22.71
60240;BME280;46102;39.012;-7.064;2023-04-27T09:00:42;98118.91;;;29.63;22.93
60240;BME280;46102;39.012;-7.064;2023-04-27T09:02:44;98119.00;;;29.72;22.69
60240;BME280;46102;39.012;-7.064;2023-04-27T09:04:46;98122.56;;;29.85;23.05
60240;BME280;46102;39.012;-7.064;2023-04-27T09:06:47;98118.63;;;29.83;22.34
60240;BME280;46102;39.012;-7.064;2023-04-27T09:08:49;98118.00;;;30.01;22.29
60240;BME280;46102;39.012;-7.064;2023-04-27T09:10:51;98109.66;;;30.19;22.20
60240;BME280;46102;39.012;-7.064;2023-04-27T09:12:57;98111.41;;;30.26;21.57
60240;BME280;46102;39.012;-7.064;2023-04-27T09:14:59;98102.94;;;30.26;21.18
60240;BME280;46102;39.012;-7.064;2023-04-27T09:17:01;98112.16;;;30.39;21.61
60240;BME280;46102;39.012;-7.064;2023-04-27T09:19:02;98119.59;;;30.46;21.23
60240;BME280;46102;39.012;-7.064;2023-04-27T09:21:03;98116.63;;;30.49;21.72
60240;BME280;46102;39.012;-7.064;2023-04-27T09:23:04;98123.47;;;30.39;22.08
60240;BME280;46102;39.012;-7.064;2023-04-27T09:25:05;98115.16;;;30.36;22.12
60240;BME280;46102;39.012;-7.064;2023-04-27T09:27:06;98117.69;;;30.21;21.29
60240;BME280;46102;39.012;-7.064;2023-04-27T09:29:06;98125.22;;;30.24;21.22
60240;BME280;46102;39.012;-7.064;2023-04-27T09:31:07;98124.72;;;30.16;21.66
60240;BME280;46102;39.012;-7.064;2023-04-27T09:33:08;98128.31;;;30.17;21.56
60240;BME280;46102;39.012;-7.064;2023-04-27T09:35:20;98132.31;;;30.41;21.13
60240;BME280;46102;39.012;-7.064;2023-04-27T09:37:21;98135.78;;;30.45;21.71
60240;BME280;46102;39.012;-7.064;2023-04-27T09:39:22;98132.56;;;30.56;21.16
60240;BME280;46102;39.012;-7.064;2023-04-27T09:41:24;98129.56;;;30.60;21.15
60240;BME280;46102;39.012;-7.064;2023-04-27T09:43:24;98128.56;;;30.44;21.07
60240;BME280;46102;39.012;-7.064;2023-04-27T09:45:26;98133.25;;;30.69;20.85
60240;BME280;46102;39.012;-7.064;2023-04-27T09:47:27;98130.72;;;30.94;20.91
60240;BME280;46102;39.012;-7.064;2023-04-27T09:49:28;98133.09;;;30.95;21.02
60240;BME280;46102;39.012;-7.064;2023-04-27T09:51:29;98123.81;;;30.95;21.12
60240;BME280;46102;39.012;-7.064;2023-04-27T09:53:48;98119.75;;;31.05;21.28
60240;BME280;46102;39.012;-7.064;2023-04-27T09:58:32;98127.50;;;31.13;21.48
60240;BME280;46102;39.012;-7.064;2023-04-27T10:05:29;98128.47;;;31.97;20.21
60240;BME280;46102;39.012;-7.064;2023-04-27T10:07:33;98118.69;;;32.26;19.98
60240;BME280;46102;39.012;-7.064;2023-04-27T10:09:36;98116.16;;;32.28;19.29
60240;BME280;46102;39.012;-7.064;2023-04-27T10:11:42;98118.03;;;32.49;19.77
60240;BME280;46102;39.012;-7.064;2023-04-27T10:13:50;98117.44;;;32.27;19.76
60240;BME280;46102;39.012;-7.064;2023-04-27T10:15:52;98122.47;;;32.32;19.78
60240;BME280;46102;39.012;-7.064;2023-04-27T10:17:53;98124.50;;;32.50;19.05
60240;BME280;46102;39.012;-7.064;2023-04-27T10:20:00;98122.91;;;32.49;18.90
60240;BME280;46102;39.012;-7.064;2023-04-27T10:22:01;98119.72;;;32.74;18.89
60240;BME280;46102;39.012;-7.064;2023-04-27T10:24:08;98115.88;;;32.87;18.30
60240;BME280;46102;39.012;-7.064;2023-04-27T10:26:09;98113.91;;;33.02;18.62
60240;BME280;46102;39.012;-7.064;2023-04-27T10:28:15;98119.69;;;33.26;17.90
60240;BME280;46102;39.012;-7.064;2023-04-27T10:30:17;98116.84;;;33.50;18.20
60240;BME280;46102;39.012;-7.064;2023-04-27T10:32:25;98122.75;;;33.13;17.38
60240;BME280;46102;39.012;-7.064;2023-04-27T10:34:26;98119.13;;;33.13;16.96
60240;BME280;46102;39.012;-7.064;2023-04-27T10:36:36;98126.19;;;33.17;17.16
60240;BME280;46102;39.012;-7.064;2023-04-27T10:38:39;98118.34;;;33.12;17.54
60240;BME280;46102;39.012;-7.064;2023-04-27T10:40:44;98123.78;;;33.25;17.16
60240;BME280;46102;39.012;-7.064;2023-04-27T10:42:46;98119.38;;;33.24;17.04